sensor_id;sensor_type;location;lat;lon;timestamp;P1;durP1;ratioP1;P2;durP2;ratioP2
10725;SDS011;5414;59.782;16.378;2022-08-18T00:00:47;13.53;;;12.43;;
10725;SDS011;5414;59.782;16.378;2022-08-18T00:03:13;14.23;;;12.93;;
10725;SDS011;5414;59.782;16.378;2022-08-18T00:05:39;14.17;;;13.07;;
10725;SDS011;5414;59.782;16.378;2022-08-18T00:08:05;14.90;;;13.60;;
10725;SDS011;5414;59.782;16.378;2022-08-18T00:10:32;13.80;;;12.50;;
10725;SDS011;5414;59.782;16.378;2022-08-18T00:12:58;12.40;;;11.37;;
10725;SDS011;5414;59.782;16.378;2022-08-18T00:15:24;13.13;;;12.03;;
10725;SDS011;5414;59.782;16.378;2022-08-18T00:17:50;13.20;;;12.20;;
10725;SDS011;5414;59.782;16.378;2022-08-18T00:20:18;12.43;;;11.43;;
10725;SDS011;5414;59.782;16.378;2022-08-18T00:22:44;14.13;;;12.93;;
10725;SDS011;5414;59.782;16.378;2022-08-18T00:25:12;14.07;;;12.97;;
10725;SDS011;5414;59.782;16.378;2022-08-18T00:27:38;12.60;;;11.60;;
10725;SDS011;5414;59.782;16.378;2022-08-18T00:30:07;13.00;;;11.90;;
10725;SDS011;5414;59.782;16.378;2022-08-18T00:32:34;13.07;;;12.00;;
10725;SDS011;5414;59.782;16.378;2022-08-18T00:35:08;14.10;;;12.70;;
10725;SDS011;5414;59.782;16.378;2022-08-18T00:37:34;12.33;;;11.23;;
10725;SDS011;5414;59.782;16.378;2022-08-18T00:40:01;11.80;;;10.57;;
10725;SDS011;5414;59.782;16.378;2022-08-18T00:42:28;13.17;;;12.07;;
10725;SDS011;5414;59.782;16.378;2022-08-18T00:44:55;12.63;;;11.53;;
10725;SDS011;5414;59.782;16.378;2022-08-18T00:47:22;14.23;;;13.13;;
10725;SDS011;5414;59.782;16.378;2022-08-18T00:49:50;13.67;;;12.57;;
10725;SDS011;5414;59.782;16.378;2022-08-18T00:52:16;13.07;;;12.03;;
10725;SDS011;5414;59.782;16.378;2022-08-18T00:54:43;14.43;;;13.33;;
10725;SDS011;5414;59.782;16.378;2022-08-18T00:57:11;15.53;;;14.13;;
10725;SDS011;5414;59.782;16.378;2022-08-18T01:02:08;14.07;;;12.87;;
10725;SDS011;5414;59.782;16.378;2022-08-18T01:04:37;14.17;;;12.90;;
10725;SDS011;5414;59.782;16.378;2022-08-18T01:07:06;13.40;;;12.10;;
10725;SDS011;5414;59.782;16.378;2022-08-18T01:09:33;13.80;;;12.70;;
10725;SDS011;5414;59.782;16.378;2022-08-18T01:11:59;13.00;;;11.90;;
10725;SDS011;5414;59.782;16.378;2022-08-18T01:14:25;14.00;;;12.77;;
10725;SDS011;5414;59.782;16.378;2022-08-18T01:16:51;13.10;;;12.10;;
10725;SDS011;5414;59.782;16.378;2022-08-18T01:19:36;13.57;;;12.33;;
10725;SDS011;5414;59.782;16.378;2022-08-18T01:25:05;13.20;;;12.20;;
10725;SDS011;5414;59.782;16.378;2022-08-18T01:27:51;13.97;;;12.83;;
10725;SDS011;5414;59.782;16.378;2022-08-18T01:30:21;14.27;;;12.97;;
10725;SDS011;5414;59.782;16.378;2022-08-18T01:32:50;14.53;;;13.33;;
10725;SDS011;5414;59.782;16.378;2022-08-18T01:35:16;14.40;;;13.17;;
10725;SDS011;5414;59.782;16.378;2022-08-18T01:37:43;14.87;;;13.47;;
10725;SDS011;5414;59.782;16.378;2022-08-18T01:40:09;13.50;;;12.30;;
10725;SDS011;5414;59.782;16.378;2022-08-18T01:42:36;13.73;;;12.57;;
10725;SDS011;5414;59.782;16.378;2022-08-18T01:45:04;14.60;;;13.30;;
10725;SDS011;5414;59.782;16.378;2022-08-18T01:47:33;14.07;;;12.77;;
10725;SDS011;5414;59.782;16.378;2022-08-18T01:50:00;13.93;;;12.63;;
10725;SDS011;5414;59.782;16.378;2022-08-18T01:52:26;15.07;;;13.77;;
10725;SDS011;5414;59.782;16.378;2022-08-18T01:54:53;14.63;;;13.10;;
10725;SDS011;5414;59.782;16.378;2022-08-18T01:57:21;13.67;;;12.27;;
10725;SDS011;5414;59.782;16.378;2022-08-18T01:59:47;11.77;;;10.77;;
10725;SDS011;5414;59.782;16.378;2022-08-18T02:02:15;14.67;;;13.27;;
10725;SDS011;5414;59.782;16.378;2022-08-18T02:04:42;14.60;;;13.40;;
10725;SDS011;5414;59.782;16.378;2022-08-18T02:07:10;14.67;;;13.03;;
10725;SDS011;5414;59.782;16.378;2022-08-18T02:09:37;15.33;;;14.03;;
10725;SDS011;5414;59.782;16.378;2022-08-18T02:12:05;13.70;;;12.40;;
10725;SDS011;5414;59.782;16.378;2022-08-18T02:14:32;13.73;;;12.53;;
10725;SDS011;5414;59.782;16.378;2022-08-18T02:16:58;12.73;;;11.73;;
10725;SDS011;5414;59.782;16.378;2022-08-18T02:19:25;10.87;;;9.97;;
10725;SDS011;5414;59.782;16.378;2022-08-18T02:21:51;13.43;;;12.33;;
10725;SDS011;5414;59.782;16.378;2022-08-18T02:24:18;13.30;;;12.10;;
10725;SDS011;5414;59.782;16.378;2022-08-18T02:26:44;14.43;;;13.13;;
10725;SDS011;5414;59.782;16.378;2022-08-18T02:29:10;12.73;;;11.73;;
10725;SDS011;5414;59.782;16.378;2022-08-18T02:31:37;13.83;;;12.47;;
10725;SDS011;5414;59.782;16.378;2022-08-18T02:34:03;12.93;;;11.90;;
10725;SDS011;5414;59.782;16.378;2022-08-18T02:36:29;12.77;;;11.67;;
10725;SDS011;5414;59.782;16.378;2022-08-18T02:38:55;14.07;;;12.97;;
10725;SDS011;5414;59.782;16.378;2022-08-18T02:41:21;14.27;;;13.07;;
10725;SDS011;5414;59.782;16.378;2022-08-18T02:43:47;14.37;;;13.17;;
10725;SDS011;5414;59.782;16.378;2022-08-18T02:46:14;15.13;;;13.93;;
10725;SDS011;5414;59.782;16.378;2022-08-18T02:48:40;14.20;;;13.00;;
10725;SDS011;5414;59.782;16.378;2022-08-18T02:51:07;13.13;;;12.03;;
10725;SDS011;5414;59.782;16.378;2022-08-18T02:53:35;12.47;;;11.47;;
10725;SDS011;5414;59.782;16.378;2022-08-18T02:56:05;13.30;;;12.20;;
10725;SDS011;5414;59.782;16.378;2022-08-18T02:58:51;12.40;;;11.27;;
10725;SDS011;5414;59.782;16.378;2022-08-18T03:01:21;11.30;;;10.50;;
10725;SDS011;5414;59.782;16.378;2022-08-18T03:03:48;14.17;;;12.87;;
10725;SDS011;5414;59.782;16.378;2022-08-18T03:06:15;14.40;;;13.20;;
10725;SDS011;5414;59.782;16.378;2022-08-18T03:08:41;12.37;;;11.47;;
10725;SDS011;5414;59.782;16.378;2022-08-18T03:11:12;13.57;;;12.40;;
10725;SDS011;5414;59.782;16.378;2022-08-18T03:13:39;12.30;;;11.20;;
10725;SDS011;5414;59.782;16.378;2022-08-18T03:16:05;11.83;;;10.93;;
10725;SDS011;5414;59.782;16.378;2022-08-18T03:18:31;13.10;;;12.00;;
10725;SDS011;5414;59.782;16.378;2022-08-18T03:21:03;14.00;;;12.80;;
10725;SDS011;5414;59.782;16.378;2022-08-18T03:23:29;12.43;;;11.43;;
10725;SDS011;5414;59.782;16.378;2022-08-18T03:25:55;10.50;;;9.70;;
10725;SDS011;5414;59.782;16.378;2022-08-18T03:28:21;12.03;;;10.97;;
10725;SDS011;5414;59.782;16.378;2022-08-18T03:30:47;14.13;;;12.97;;
10725;SDS011;5414;59.782;16.378;2022-08-18T03:33:15;14.10;;;13.00;;
10725;SDS011;5414;59.782;16.378;2022-08-18T03:35:41;13.30;;;12.20;;
10725;SDS011;5414;59.782;16.378;2022-08-18T03:38:08;13.77;;;12.57;;
10725;SDS011;5414;59.782;16.378;2022-08-18T03:40:34;13.37;;;12.37;;
10725;SDS011;5414;59.782;16.378;2022-08-18T03:43:02;14.77;;;13.33;;
10725;SDS011;5414;59.782;16.378;2022-08-18T03:45:30;12.27;;;11.27;;
10725;SDS011;5414;59.782;16.378;2022-08-18T03:47:56;13.73;;;12.53;;
10725;SDS011;5414;59.782;16.378;2022-08-18T03:50:24;13.13;;;11.93;;
10725;SDS011;5414;59.782;16.378;2022-08-18T03:52:50;12.90;;;11.90;;
10725;SDS011;5414;59.782;16.378;2022-08-18T03:55:17;13.57;;;12.37;;
10725;SDS011;5414;59.782;16.378;2022-08-18T03:57:43;13.30;;;12.23;;
10725;SDS011;5414;59.782;16.378;2022-08-18T04:00:10;13.40;;;12.27;;
10725;SDS011;5414;59.782;16.378;2022-08-18T04:02:38;12.83;;;11.87;;
10725;SDS011;5414;59.782;16.378;2022-08-18T04:05:04;11.63;;;10.73;;
10725;SDS011;5414;59.782;16.378;2022-08-18T04:07:31;11.93;;;10.93;;
10725;SDS011;5414;59.782;16.378;2022-08-18T04:09:57;12.57;;;11.27;;
10725;SDS011;5414;59.782;16.378;2022-08-18T04:12:23;13.77;;;12.67;;
10725;SDS011;5414;59.782;16.378;2022-08-18T04:14:49;13.17;;;12.10;;
10725;SDS011;5414;59.782;16.378;2022-08-18T04:17:17;13.00;;;12.00;;
10725;SDS011;5414;59.782;16.378;2022-08-18T04:19:47;13.37;;;12.37;;
10725;SDS011;5414;59.782;16.378;2022-08-18T04:22:14;13.93;;;12.73;;
10725;SDS011;5414;59.782;16.378;2022-08-18T04:24:40;13.80;;;12.60;;
10725;SDS011;5414;59.782;16.378;2022-08-18T04:27:07;14.70;;;13.37;;
10725;SDS011;5414;59.782;16.378;2022-08-18T04:29:33;14.13;;;12.93;;
10725;SDS011;5414;59.782;16.378;2022-08-18T04:32:00;14.77;;;13.57;;
10725;SDS011;5414;59.782;16.378;2022-08-18T04:34:27;15.20;;;13.90;;
10725;SDS011;5414;59.782;16.378;2022-08-18T04:36:54;14.60;;;13.40;;
10725;SDS011;5414;59.782;16.378;2022-08-18T04:39:20;13.97;;;12.87;;
10725;SDS011;5414;59.782;16.378;2022-08-18T04:41:46;15.00;;;13.73;;
10725;SDS011;5414;59.782;16.378;2022-08-18T04:44:14;14.57;;;13.33;;
10725;SDS011;5414;59.782;16.378;2022-08-18T04:46:46;13.67;;;12.47;;
10725;SDS011;5414;59.782;16.378;2022-08-18T04:49:13;15.13;;;13.83;;
10725;SDS011;5414;59.782;16.378;2022-08-18T04:51:40;14.40;;;13.23;;
10725;SDS011;5414;59.782;16.378;2022-08-18T04:54:06;15.60;;;14.40;;
10725;SDS011;5414;59.782;16.378;2022-08-18T04:56:33;14.83;;;13.63;;
10725;SDS011;5414;59.782;16.378;2022-08-18T04:59:05;14.00;;;12.83;;
10725;SDS011;5414;59.782;16.378;2022-08-18T05:01:39;14.17;;;12.97;;
10725;SDS011;5414;59.782;16.378;2022-08-18T05:04:05;15.67;;;14.27;;
10725;SDS011;5414;59.782;16.378;2022-08-18T05:06:32;14.33;;;13.17;;
10725;SDS011;5414;59.782;16.378;2022-08-18T05:08:59;14.33;;;13.23;;
10725;SDS011;5414;59.782;16.378;2022-08-18T05:11:27;16.13;;;14.80;;
10725;SDS011;5414;59.782;16.378;2022-08-18T05:13:54;13.93;;;12.73;;
10725;SDS011;5414;59.782;16.378;2022-08-18T05:16:22;13.73;;;12.73;;
10725;SDS011;5414;59.782;16.378;2022-08-18T05:18:48;14.27;;;13.17;;
10725;SDS011;5414;59.782;16.378;2022-08-18T05:21:14;15.60;;;14.33;;
10725;SDS011;5414;59.782;16.378;2022-08-18T05:23:42;15.70;;;14.37;;
10725;SDS011;5414;59.782;16.378;2022-08-18T05:26:09;15.83;;;14.53;;
10725;SDS011;5414;59.782;16.378;2022-08-18T05:28:35;15.73;;;14.33;;
10725;SDS011;5414;59.782;16.378;2022-08-18T05:31:35;15.43;;;14.13;;
10725;SDS011;5414;59.782;16.378;2022-08-18T05:33:55;16.13;;;14.80;;
10725;SDS011;5414;59.782;16.378;2022-08-18T05:38:58;17.50;;;15.97;;
10725;SDS011;5414;59.782;16.378;2022-08-18T05:41:37;17.67;;;16.17;;
10725;SDS011;5414;59.782;16.378;2022-08-18T05:44:05;19.07;;;17.43;;
10725;SDS011;5414;59.782;16.378;2022-08-18T05:46:43;19.30;;;17.43;;
10725;SDS011;5414;59.782;16.378;2022-08-18T05:49:11;18.77;;;17.17;;
10725;SDS011;5414;59.782;16.378;2022-08-18T05:51:46;19.43;;;17.83;;
10725;SDS011;5414;59.782;16.378;2022-08-18T05:54:13;19.17;;;17.47;;
10725;SDS011;5414;59.782;16.378;2022-08-18T05:57:04;18.63;;;17.03;;
10725;SDS011;5414;59.782;16.378;2022-08-18T05:59:32;19.03;;;17.20;;
10725;SDS011;5414;59.782;16.378;2022-08-18T06:02:11;18.97;;;17.47;;
10725;SDS011;5414;59.782;16.378;2022-08-18T06:04:51;19.20;;;17.50;;
10725;SDS011;5414;59.782;16.378;2022-08-18T06:07:20;17.80;;;16.40;;
10725;SDS011;5414;59.782;16.378;2022-08-18T06:09:51;17.40;;;15.90;;
10725;SDS011;5414;59.782;16.378;2022-08-18T06:12:59;18.50;;;16.90;;
10725;SDS011;5414;59.782;16.378;2022-08-18T06:22:43;18.53;;;16.83;;
10725;SDS011;5414;59.782;16.378;2022-08-18T06:25:17;17.30;;;15.90;;
10725;SDS011;5414;59.782;16.378;2022-08-18T06:31:03;17.00;;;15.50;;
10725;SDS011;5414;59.782;16.378;2022-08-18T06:35:41;16.60;;;15.20;;
10725;SDS011;5414;59.782;16.378;2022-08-18T06:43:57;16.70;;;15.20;;
10725;SDS011;5414;59.782;16.378;2022-08-18T06:49:01;16.37;;;14.97;;
10725;SDS011;5414;59.782;16.378;2022-08-18T06:51:28;17.67;;;15.97;;
10725;SDS011;5414;59.782;16.378;2022-08-18T06:53:56;17.93;;;16.27;;
10725;SDS011;5414;59.782;16.378;2022-08-18T07:01:39;16.77;;;15.17;;
10725;SDS011;5414;59.782;16.378;2022-08-18T07:04:05;16.30;;;14.90;;
10725;SDS011;5414;59.782;16.378;2022-08-18T07:06:31;16.97;;;15.47;;
10725;SDS011;5414;59.782;16.378;2022-08-18T07:09:16;16.57;;;15.07;;
10725;SDS011;5414;59.782;16.378;2022-08-18T07:11:56;16.93;;;15.43;;
10725;SDS011;5414;59.782;16.378;2022-08-18T07:14:24;17.47;;;15.77;;
10725;SDS011;5414;59.782;16.378;2022-08-18T07:17:04;15.97;;;14.57;;
10725;SDS011;5414;59.782;16.378;2022-08-18T07:19:31;16.57;;;15.10;;
10725;SDS011;5414;59.782;16.378;2022-08-18T07:22:05;16.10;;;14.70;;
10725;SDS011;5414;59.782;16.378;2022-08-18T07:24:37;15.60;;;14.27;;
10725;SDS011;5414;59.782;16.378;2022-08-18T07:27:17;16.27;;;14.77;;
10725;SDS011;5414;59.782;16.378;2022-08-18T07:32:52;15.77;;;14.33;;
10725;SDS011;5414;59.782;16.378;2022-08-18T07:35:17;13.43;;;12.23;;
10725;SDS011;5414;59.782;16.378;2022-08-18T07:37:46;14.80;;;13.50;;
10725;SDS011;5414;59.782;16.378;2022-08-18T07:40:28;14.53;;;13.43;;
10725;SDS011;5414;59.782;16.378;2022-08-18T07:43:04;13.87;;;12.77;;
10725;SDS011;5414;59.782;16.378;2022-08-18T07:45:40;13.80;;;12.57;;
10725;SDS011;5414;59.782;16.378;2022-08-18T07:48:11;13.17;;;11.90;;
10725;SDS011;5414;59.782;16.378;2022-08-18T07:51:21;14.10;;;12.83;;
10725;SDS011;5414;59.782;16.378;2022-08-18T07:53:39;12.77;;;11.57;;
10725;SDS011;5414;59.782;16.378;2022-08-18T07:56:17;12.73;;;11.63;;
10725;SDS011;5414;59.782;16.378;2022-08-18T07:58:47;11.63;;;10.63;;
10725;SDS011;5414;59.782;16.378;2022-08-18T08:04:20;11.43;;;10.23;;
10725;SDS011;5414;59.782;16.378;2022-08-18T08:06:41;12.10;;;11.00;;
10725;SDS011;5414;59.782;16.378;2022-08-18T08:09:13;11.53;;;10.33;;
10725;SDS011;5414;59.782;16.378;2022-08-18T08:11:57;11.00;;;10.10;;
10725;SDS011;5414;59.782;16.378;2022-08-18T08:24:36;10.87;;;9.87;;
10725;SDS011;5414;59.782;16.378;2022-08-18T08:27:13;10.77;;;9.97;;
10725;SDS011;5414;59.782;16.378;2022-08-18T08:32:30;9.50;;;8.70;;
10725;SDS011;5414;59.782;16.378;2022-08-18T08:34:58;10.13;;;9.33;;
10725;SDS011;5414;59.782;16.378;2022-08-18T08:39:59;9.47;;;8.57;;
10725;SDS011;5414;59.782;16.378;2022-08-18T08:42:33;8.67;;;7.97;;
10725;SDS011;5414;59.782;16.378;2022-08-18T08:45:08;8.63;;;7.97;;
10725;SDS011;5414;59.782;16.378;2022-08-18T08:47:40;9.37;;;8.57;;
10725;SDS011;5414;59.782;16.378;2022-08-18T08:50:11;8.37;;;7.67;;
10725;SDS011;5414;59.782;16.378;2022-08-18T08:52:45;8.63;;;7.73;;
10725;SDS011;5414;59.782;16.378;2022-08-18T08:55:15;8.23;;;7.43;;
10725;SDS011;5414;59.782;16.378;2022-08-18T08:57:44;9.10;;;8.17;;
10725;SDS011;5414;59.782;16.378;2022-08-18T09:00:12;7.57;;;7.00;;
10725;SDS011;5414;59.782;16.378;2022-08-18T09:05:24;8.70;;;8.00;;
10725;SDS011;5414;59.782;16.378;2022-08-18T09:10:48;8.07;;;7.40;;
10725;SDS011;5414;59.782;16.378;2022-08-18T09:23:18;7.20;;;6.53;;
10725;SDS011;5414;59.782;16.378;2022-08-18T09:25:49;6.93;;;6.43;;
10725;SDS011;5414;59.782;16.378;2022-08-18T09:28:20;7.10;;;6.60;;
10725;SDS011;5414;59.782;16.378;2022-08-18T09:33:25;7.35;;;6.20;;
10725;SDS011;5414;59.782;16.378;2022-08-18T09:38:25;7.00;;;6.40;;
10725;SDS011;5414;59.782;16.378;2022-08-18T09:41:12;6.57;;;6.07;;
10725;SDS011;5414;59.782;16.378;2022-08-18T09:44:04;6.63;;;6.03;;
10725;SDS011;5414;59.782;16.378;2022-08-18T09:51:57;6.65;;;6.03;;
10725;SDS011;5414;59.782;16.378;2022-08-18T09:54:32;6.13;;;5.63;;
10725;SDS011;5414;59.782;16.378;2022-08-18T09:57:15;6.05;;;5.55;;
10725;SDS011;5414;59.782;16.378;2022-08-18T10:02:13;7.18;;;6.03;;
10725;SDS011;5414;59.782;16.378;2022-08-18T10:07:44;6.35;;;5.85;;
10725;SDS011;5414;59.782;16.378;2022-08-18T10:15:33;6.15;;;5.63;;
10725;SDS011;5414;59.782;16.378;2022-08-18T10:20:48;6.10;;;5.60;;
10725;SDS011;5414;59.782;16.378;2022-08-18T10:26:02;6.72;;;6.13;;
10725;SDS011;5414;59.782;16.378;2022-08-18T10:28:51;6.25;;;5.85;;
10725;SDS011;5414;59.782;16.378;2022-08-18T10:31:15;6.70;;;6.07;;
10725;SDS011;5414;59.782;16.378;2022-08-18T10:39:03;6.13;;;5.70;;
10725;SDS011;5414;59.782;16.378;2022-08-18T10:41:30;5.97;;;5.50;;
10725;SDS011;5414;59.782;16.378;2022-08-18T10:43:57;5.68;;;5.28;;
10725;SDS011;5414;59.782;16.378;2022-08-18T10:46:28;6.40;;;5.82;;
10725;SDS011;5414;59.782;16.378;2022-08-18T10:49:02;6.25;;;5.65;;
10725;SDS011;5414;59.782;16.378;2022-08-18T10:51:38;6.68;;;6.07;;
10725;SDS011;5414;59.782;16.378;2022-08-18T10:56:56;6.85;;;6.25;;
10725;SDS011;5414;59.782;16.378;2022-08-18T11:02:00;6.65;;;6.05;;
10725;SDS011;5414;59.782;16.378;2022-08-18T11:04:41;6.70;;;6.07;;
10725;SDS011;5414;59.782;16.378;2022-08-18T11:07:12;7.15;;;6.55;;
10725;SDS011;5414;59.782;16.378;2022-08-18T11:09:40;7.50;;;6.60;;
10725;SDS011;5414;59.782;16.378;2022-08-18T11:12:06;7.30;;;6.63;;
10725;SDS011;5414;59.782;16.378;2022-08-18T11:19:47;6.75;;;6.15;;
10725;SDS011;5414;59.782;16.378;2022-08-18T11:22:20;6.80;;;6.28;;
10725;SDS011;5414;59.782;16.378;2022-08-18T11:24:46;7.97;;;6.22;;
10725;SDS011;5414;59.782;16.378;2022-08-18T11:27:21;7.07;;;6.55;;
10725;SDS011;5414;59.782;16.378;2022-08-18T11:29:47;7.43;;;6.82;;
10725;SDS011;5414;59.782;16.378;2022-08-18T11:39:50;6.90;;;6.40;;
10725;SDS011;5414;59.782;16.378;2022-08-18T11:42:19;7.82;;;7.22;;
10725;SDS011;5414;59.782;16.378;2022-08-18T11:44:52;6.97;;;6.32;;
10725;SDS011;5414;59.782;16.378;2022-08-18T11:47:19;6.40;;;5.90;;
10725;SDS011;5414;59.782;16.378;2022-08-18T11:49:55;7.28;;;6.65;;
10725;SDS011;5414;59.782;16.378;2022-08-18T11:52:28;6.70;;;6.10;;
10725;SDS011;5414;59.782;16.378;2022-08-18T11:54:59;7.00;;;6.38;;
10725;SDS011;5414;59.782;16.378;2022-08-18T11:57:30;6.95;;;6.45;;
10725;SDS011;5414;59.782;16.378;2022-08-18T12:00:00;7.22;;;6.63;;
10725;SDS011;5414;59.782;16.378;2022-08-18T12:02:45;7.10;;;6.43;;
10725;SDS011;5414;59.782;16.378;2022-08-18T12:05:12;7.70;;;6.85;;
10725;SDS011;5414;59.782;16.378;2022-08-18T12:07:40;6.97;;;6.47;;
10725;SDS011;5414;59.782;16.378;2022-08-18T12:12:33;6.97;;;6.43;;
10725;SDS011;5414;59.782;16.378;2022-08-18T12:15:00;6.65;;;5.85;;
10725;SDS011;5414;59.782;16.378;2022-08-18T12:17:27;6.88;;;6.38;;
10725;SDS011;5414;59.782;16.378;2022-08-18T12:19:54;6.25;;;5.75;;
10725;SDS011;5414;59.782;16.378;2022-08-18T12:22:23;6.90;;;6.40;;
10725;SDS011;5414;59.782;16.378;2022-08-18T12:24:50;6.65;;;6.15;;
10725;SDS011;5414;59.782;16.378;2022-08-18T12:27:18;6.85;;;6.28;;
10725;SDS011;5414;59.782;16.378;2022-08-18T12:29:44;6.15;;;5.65;;
10725;SDS011;5414;59.782;16.378;2022-08-18T12:32:12;6.40;;;5.95;;
10725;SDS011;5414;59.782;16.378;2022-08-18T12:34:38;6.70;;;6.20;;
10725;SDS011;5414;59.782;16.378;2022-08-18T12:37:06;6.80;;;6.20;;
10725;SDS011;5414;59.782;16.378;2022-08-18T12:39:33;6.78;;;6.28;;
10725;SDS011;5414;59.782;16.378;2022-08-18T12:41:59;7.50;;;6.50;;
10725;SDS011;5414;59.782;16.378;2022-08-18T12:44:26;7.05;;;6.32;;
10725;SDS011;5414;59.782;16.378;2022-08-18T12:46:52;7.10;;;6.50;;
10725;SDS011;5414;59.782;16.378;2022-08-18T12:49:20;6.80;;;6.30;;
10725;SDS011;5414;59.782;16.378;2022-08-18T12:51:48;6.68;;;6.15;;
10725;SDS011;5414;59.782;16.378;2022-08-18T12:54:15;6.32;;;5.82;;
10725;SDS011;5414;59.782;16.378;2022-08-18T12:56:41;6.43;;;5.93;;
10725;SDS011;5414;59.782;16.378;2022-08-18T12:59:08;6.63;;;6.13;;
10725;SDS011;5414;59.782;16.378;2022-08-18T13:01:35;6.72;;;6.20;;
10725;SDS011;5414;59.782;16.378;2022-08-18T13:04:02;7.13;;;6.53;;
10725;SDS011;5414;59.782;16.378;2022-08-18T13:06:29;6.97;;;6.38;;
10725;SDS011;5414;59.782;16.378;2022-08-18T13:08:55;6.82;;;6.30;;
10725;SDS011;5414;59.782;16.378;2022-08-18T13:11:22;7.32;;;6.70;;
10725;SDS011;5414;59.782;16.378;2022-08-18T13:13:48;6.57;;;5.97;;
10725;SDS011;5414;59.782;16.378;2022-08-18T13:16:15;6.75;;;6.15;;
10725;SDS011;5414;59.782;16.378;2022-08-18T13:18:42;7.22;;;6.65;;
10725;SDS011;5414;59.782;16.378;2022-08-18T13:21:09;6.43;;;5.80;;
10725;SDS011;5414;59.782;16.378;2022-08-18T13:23:36;6.93;;;6.03;;
10725;SDS011;5414;59.782;16.378;2022-08-18T13:26:04;6.45;;;5.90;;
10725;SDS011;5414;59.782;16.378;2022-08-18T13:28:31;7.03;;;6.05;;
10725;SDS011;5414;59.782;16.378;2022-08-18T13:30:57;6.80;;;6.30;;
10725;SDS011;5414;59.782;16.378;2022-08-18T13:33:23;6.30;;;5.80;;
10725;SDS011;5414;59.782;16.378;2022-08-18T13:35:50;6.80;;;6.30;;
10725;SDS011;5414;59.782;16.378;2022-08-18T13:38:17;7.47;;;6.07;;
10725;SDS011;5414;59.782;16.378;2022-08-18T13:40:44;6.70;;;6.20;;
10725;SDS011;5414;59.782;16.378;2022-08-18T13:43:12;6.82;;;6.22;;
10725;SDS011;5414;59.782;16.378;2022-08-18T13:45:38;7.00;;;6.40;;
10725;SDS011;5414;59.782;16.378;2022-08-18T13:48:05;6.72;;;6.15;;
10725;SDS011;5414;59.782;16.378;2022-08-18T13:50:31;6.82;;;6.30;;
10725;SDS011;5414;59.782;16.378;2022-08-18T13:52:57;6.10;;;5.70;;
10725;SDS011;5414;59.782;16.378;2022-08-18T13:55:26;6.75;;;6.25;;
10725;SDS011;5414;59.782;16.378;2022-08-18T13:57:53;8.43;;;6.70;;
10725;SDS011;5414;59.782;16.378;2022-08-18T14:00:20;6.80;;;6.20;;
10725;SDS011;5414;59.782;16.378;2022-08-18T14:02:47;6.50;;;6.00;;
10725;SDS011;5414;59.782;16.378;2022-08-18T14:05:15;7.32;;;6.10;;
10725;SDS011;5414;59.782;16.378;2022-08-18T14:07:41;6.28;;;5.78;;
10725;SDS011;5414;59.782;16.378;2022-08-18T14:10:08;9.75;;;6.45;;
10725;SDS011;5414;59.782;16.378;2022-08-18T14:12:35;6.70;;;6.10;;
10725;SDS011;5414;59.782;16.378;2022-08-18T14:15:02;6.75;;;6.03;;
10725;SDS011;5414;59.782;16.378;2022-08-18T14:17:30;6.57;;;6.07;;
10725;SDS011;5414;59.782;16.378;2022-08-18T14:19:57;6.17;;;5.67;;
10725;SDS011;5414;59.782;16.378;2022-08-18T14:22:41;6.40;;;5.90;;
10725;SDS011;5414;59.782;16.378;2022-08-18T14:25:27;6.47;;;5.85;;
10725;SDS011;5414;59.782;16.378;2022-08-18T14:28:12;6.43;;;5.93;;
10725;SDS011;5414;59.782;16.378;2022-08-18T14:30:42;6.28;;;5.72;;
10725;SDS011;5414;59.782;16.378;2022-08-18T14:33:09;6.50;;;6.00;;
10725;SDS011;5414;59.782;16.378;2022-08-18T14:35:35;6.63;;;6.13;;
10725;SDS011;5414;59.782;16.378;2022-08-18T14:38:02;6.80;;;6.10;;
10725;SDS011;5414;59.782;16.378;2022-08-18T14:40:30;6.97;;;6.37;;
10725;SDS011;5414;59.782;16.378;2022-08-18T14:42:57;6.50;;;6.00;;
10725;SDS011;5414;59.782;16.378;2022-08-18T14:45:24;6.67;;;6.17;;
10725;SDS011;5414;59.782;16.378;2022-08-18T14:47:50;6.53;;;5.93;;
10725;SDS011;5414;59.782;16.378;2022-08-18T14:50:18;6.40;;;5.90;;
10725;SDS011;5414;59.782;16.378;2022-08-18T14:52:45;6.80;;;6.20;;
10725;SDS011;5414;59.782;16.378;2022-08-18T14:55:14;6.83;;;6.30;;
10725;SDS011;5414;59.782;16.378;2022-08-18T14:57:40;7.23;;;6.63;;
10725;SDS011;5414;59.782;16.378;2022-08-18T15:00:08;6.70;;;6.17;;
10725;SDS011;5414;59.782;16.378;2022-08-18T15:02:36;6.33;;;5.83;;
10725;SDS011;5414;59.782;16.378;2022-08-18T15:05:03;6.17;;;5.67;;
10725;SDS011;5414;59.782;16.378;2022-08-18T15:07:29;9.13;;;6.37;;
10725;SDS011;5414;59.782;16.378;2022-08-18T15:09:55;6.63;;;6.10;;
10725;SDS011;5414;59.782;16.378;2022-08-18T15:12:22;6.73;;;6.23;;
10725;SDS011;5414;59.782;16.378;2022-08-18T15:14:49;6.47;;;6.00;;
10725;SDS011;5414;59.782;16.378;2022-08-18T15:17:15;6.43;;;5.90;;
10725;SDS011;5414;59.782;16.378;2022-08-18T15:19:41;6.90;;;6.20;;
10725;SDS011;5414;59.782;16.378;2022-08-18T15:22:08;6.63;;;6.03;;
10725;SDS011;5414;59.782;16.378;2022-08-18T15:24:54;6.80;;;6.30;;
10725;SDS011;5414;59.782;16.378;2022-08-18T15:27:39;6.47;;;5.97;;
10725;SDS011;5414;59.782;16.378;2022-08-18T15:30:06;6.57;;;6.07;;
10725;SDS011;5414;59.782;16.378;2022-08-18T15:32:33;7.23;;;6.53;;
10725;SDS011;5414;59.782;16.378;2022-08-18T15:34:59;7.70;;;6.63;;
10725;SDS011;5414;59.782;16.378;2022-08-18T15:37:25;7.27;;;6.67;;
10725;SDS011;5414;59.782;16.378;2022-08-18T15:39:59;7.73;;;7.03;;
10725;SDS011;5414;59.782;16.378;2022-08-18T15:42:26;7.03;;;6.43;;
10725;SDS011;5414;59.782;16.378;2022-08-18T15:44:52;6.50;;;6.00;;
10725;SDS011;5414;59.782;16.378;2022-08-18T15:47:18;7.37;;;6.67;;
10725;SDS011;5414;59.782;16.378;2022-08-18T15:49:46;7.27;;;6.67;;
10725;SDS011;5414;59.782;16.378;2022-08-18T15:52:13;8.30;;;7.50;;
10725;SDS011;5414;59.782;16.378;2022-08-18T15:54:39;7.40;;;6.80;;
10725;SDS011;5414;59.782;16.378;2022-08-18T15:57:05;7.90;;;7.20;;
10725;SDS011;5414;59.782;16.378;2022-08-18T15:59:33;8.23;;;7.47;;
10725;SDS011;5414;59.782;16.378;2022-08-18T16:01:59;8.27;;;7.57;;
10725;SDS011;5414;59.782;16.378;2022-08-18T16:04:26;8.27;;;7.53;;
10725;SDS011;5414;59.782;16.378;2022-08-18T16:06:52;8.00;;;7.33;;
10725;SDS011;5414;59.782;16.378;2022-08-18T16:09:20;7.97;;;7.37;;
10725;SDS011;5414;59.782;16.378;2022-08-18T16:11:46;8.50;;;7.70;;
10725;SDS011;5414;59.782;16.378;2022-08-18T16:14:13;8.57;;;7.87;;
10725;SDS011;5414;59.782;16.378;2022-08-18T16:16:39;8.83;;;8.03;;
10725;SDS011;5414;59.782;16.378;2022-08-18T16:19:05;8.97;;;8.07;;
10725;SDS011;5414;59.782;16.378;2022-08-18T16:21:31;8.43;;;7.73;;
10725;SDS011;5414;59.782;16.378;2022-08-18T16:23:58;8.73;;;7.90;;
10725;SDS011;5414;59.782;16.378;2022-08-18T16:26:24;8.30;;;7.50;;
10725;SDS011;5414;59.782;16.378;2022-08-18T16:28:50;8.17;;;7.43;;
10725;SDS011;5414;59.782;16.378;2022-08-18T16:31:17;8.37;;;7.57;;
10725;SDS011;5414;59.782;16.378;2022-08-18T16:33:48;9.17;;;8.37;;
10725;SDS011;5414;59.782;16.378;2022-08-18T16:36:14;8.70;;;7.77;;
10725;SDS011;5414;59.782;16.378;2022-08-18T16:38:42;7.90;;;7.20;;
10725;SDS011;5414;59.782;16.378;2022-08-18T16:41:09;9.90;;;8.00;;
10725;SDS011;5414;59.782;16.378;2022-08-18T16:43:36;8.40;;;7.70;;
10725;SDS011;5414;59.782;16.378;2022-08-18T16:46:03;8.70;;;7.87;;
10725;SDS011;5414;59.782;16.378;2022-08-18T16:48:29;8.03;;;7.33;;